Hauptseite
METAR-TAF:

METAR-TAF

Flughäfen :

Flughafen Rijeka

Rijeka, Kroatien

Breite: 45-13N, Länge: 014-35E, Höhe: 85 m

Beobachtung

Neuester Wetterbericht von vor 19 Minuten, um 02:00 UTC
Wind 1 kt aus unterschiedlichen Richtungen
Temperatur -1°C
Luftfeuchtigkeit 69%
Luftdruck 1020 hPa
Sichtweite 10 km oder mehr
keine Wolken unter 1500 m und keine Kumulonimbus oder Gewitterwolken

METAR: LDRI 160200Z VRB01KT CAVOK M01/M06 Q1020

Zeit: 03:19 (02:19 UTC)

Prognose

Neuester Wetterbericht von vor 2 Stunden und 54 Minuten, um 23:25 UTC
Gültige Prognose vom 16 um 00 UTC bis 17 um 00 UTC
Wind 10 kt aus Nord/Nordwest
Sichtweite 10 km oder mehr
keine Wolken unter 1500 m und keine Kumulonimbus oder Gewitterwolken
Übergehend zu
vom 16 um 00 UTC bis 16 um 02 UTC
Wind 10 kt aus Nordost

TAF: LDRI 152325Z 1600/1700 34010KT CAVOK TX06/1613Z TNM02/1605Z BECMG 1600/1602 05010KT

Wetterbeobachtungen und Prognosen von mehr als 4000 Flughäfen (METAR und TAF Bericht).

Die verfügbaren Stationen werden durch gelbe und rote Markierungen auf der Karte dargestellt.

Führen Sie die Maus auf sie, um den Namen der Station zu sehen.

Darauf klicken, um die Beobachtung von Wetterbeobachtungen und Prognosen zu sehen.

Um die Karte zu ändern : klicken Sie auf den grünen Tasten mit einem schwarzen Kreuz Zum Vergrößern, auf den grünen Button mit einem Gedankenstrich zu verkleinern, oder auf die grünen Pfeile für benachbarte Karten.


METAR-TAF: